sensor_id;sensor_type;location;lat;lon;timestamp;pressure;altitude;pressure_sealevel;temperature;humidity
3294;BME280;1659;51.470;6.770;2024-03-02T00:00:36;99904.59;;;8.29;68.71
3294;BME280;1659;51.470;6.770;2024-03-02T00:03:04;99909.00;;;8.29;68.87
3294;BME280;1659;51.470;6.770;2024-03-02T00:05:32;99900.25;;;8.28;68.71
3294;BME280;1659;51.470;6.770;2024-03-02T00:07:59;99896.72;;;8.28;69.15
3294;BME280;1659;51.470;6.770;2024-03-02T00:10:27;99894.19;;;8.25;69.27
3294;BME280;1659;51.470;6.770;2024-03-02T00:13:00;99894.97;;;8.28;68.76
3294;BME280;1659;51.470;6.770;2024-03-02T00:15:40;99880.84;;;8.31;68.96
3294;BME280;1659;51.470;6.770;2024-03-02T00:18:08;99882.50;;;8.35;69.03
3294;BME280;1659;51.470;6.770;2024-03-02T00:20:38;99870.19;;;8.37;69.15
3294;BME280;1659;51.470;6.770;2024-03-02T00:23:06;99877.97;;;8.43;68.81
3294;BME280;1659;51.470;6.770;2024-03-02T00:25:37;99868.16;;;8.50;68.80
3294;BME280;1659;51.470;6.770;2024-03-02T00:28:05;99854.00;;;8.54;68.51
3294;BME280;1659;51.470;6.770;2024-03-02T00:30:59;99853.88;;;8.60;68.78
3294;BME280;1659;51.470;6.770;2024-03-02T00:33:30;99869.56;;;8.65;68.81
3294;BME280;1659;51.470;6.770;2024-03-02T00:35:59;99860.66;;;8.69;68.66
3294;BME280;1659;51.470;6.770;2024-03-02T00:38:26;99861.41;;;8.74;68.62
3294;BME280;1659;51.470;6.770;2024-03-02T00:40:54;99852.50;;;8.78;68.54
3294;BME280;1659;51.470;6.770;2024-03-02T00:43:44;99855.94;;;8.82;68.23
3294;BME280;1659;51.470;6.770;2024-03-02T00:46:12;99860.22;;;8.86;67.99
3294;BME280;1659;51.470;6.770;2024-03-02T00:48:51;99859.28;;;8.88;68.02
3294;BME280;1659;51.470;6.770;2024-03-02T00:51:21;99859.19;;;8.92;68.02
3294;BME280;1659;51.470;6.770;2024-03-02T00:53:48;99864.44;;;8.93;67.71
3294;BME280;1659;51.470;6.770;2024-03-02T00:56:15;99842.38;;;8.96;67.82
3294;BME280;1659;51.470;6.770;2024-03-02T00:58:42;99846.66;;;9.00;67.79
3294;BME280;1659;51.470;6.770;2024-03-02T01:01:08;99841.31;;;9.03;67.46
3294;BME280;1659;51.470;6.770;2024-03-02T01:03:35;99851.81;;;9.04;67.19
3294;BME280;1659;51.470;6.770;2024-03-02T01:06:03;99858.78;;;9.07;67.39
3294;BME280;1659;51.470;6.770;2024-03-02T01:08:31;99854.31;;;9.11;67.08
3294;BME280;1659;51.470;6.770;2024-03-02T01:10:57;99864.75;;;9.14;66.65
3294;BME280;1659;51.470;6.770;2024-03-02T01:13:24;99866.47;;;9.15;66.71
3294;BME280;1659;51.470;6.770;2024-03-02T01:15:51;99855.03;;;9.16;66.73
3294;BME280;1659;51.470;6.770;2024-03-02T01:18:18;99862.94;;;9.16;66.87
3294;BME280;1659;51.470;6.770;2024-03-02T01:20:45;99858.59;;;9.13;66.87
3294;BME280;1659;51.470;6.770;2024-03-02T01:23:11;99864.81;;;9.12;66.71
3294;BME280;1659;51.470;6.770;2024-03-02T01:25:39;99864.81;;;9.12;67.07
3294;BME280;1659;51.470;6.770;2024-03-02T01:28:06;99856.97;;;9.09;66.75
3294;BME280;1659;51.470;6.770;2024-03-02T01:30:33;99845.69;;;9.04;67.01
3294;BME280;1659;51.470;6.770;2024-03-02T01:33:00;99860.72;;;9.00;66.74
3294;BME280;1659;51.470;6.770;2024-03-02T01:35:27;99855.44;;;9.00;66.76
3294;BME280;1659;51.470;6.770;2024-03-02T01:37:54;99849.41;;;8.97;66.92
3294;BME280;1659;51.470;6.770;2024-03-02T01:40:20;99849.50;;;8.92;67.04
3294;BME280;1659;51.470;6.770;2024-03-02T01:42:50;99847.00;;;8.87;67.23
3294;BME280;1659;51.470;6.770;2024-03-02T01:45:16;99849.84;;;8.80;67.18
3294;BME280;1659;51.470;6.770;2024-03-02T01:47:43;99853.50;;;8.74;67.37
3294;BME280;1659;51.470;6.770;2024-03-02T01:50:11;99859.75;;;8.70;67.93
3294;BME280;1659;51.470;6.770;2024-03-02T01:52:38;99853.56;;;8.71;67.91
3294;BME280;1659;51.470;6.770;2024-03-02T01:55:06;99856.19;;;8.73;67.72
3294;BME280;1659;51.470;6.770;2024-03-02T01:57:32;99847.31;;;8.75;67.24
3294;BME280;1659;51.470;6.770;2024-03-02T02:00:01;99849.88;;;8.78;67.58
3294;BME280;1659;51.470;6.770;2024-03-02T02:02:28;99848.06;;;8.80;67.70
3294;BME280;1659;51.470;6.770;2024-03-02T02:04:55;99849.72;;;8.84;67.42
3294;BME280;1659;51.470;6.770;2024-03-02T02:07:21;99860.16;;;8.87;67.30
3294;BME280;1659;51.470;6.770;2024-03-02T02:09:48;99850.50;;;8.88;67.32
3294;BME280;1659;51.470;6.770;2024-03-02T02:12:14;99845.13;;;8.91;67.41
3294;BME280;1659;51.470;6.770;2024-03-02T02:14:47;99844.25;;;8.92;67.60
3294;BME280;1659;51.470;6.770;2024-03-02T02:17:15;99842.38;;;8.96;67.58
3294;BME280;1659;51.470;6.770;2024-03-02T02:19:41;99841.38;;;9.00;67.50
3294;BME280;1659;51.470;6.770;2024-03-02T02:22:10;99848.38;;;9.02;67.42
3294;BME280;1659;51.470;6.770;2024-03-02T02:24:39;99840.38;;;9.05;67.30
3294;BME280;1659;51.470;6.770;2024-03-02T02:27:06;99844.69;;;9.08;67.00
3294;BME280;1659;51.470;6.770;2024-03-02T02:29:32;99849.88;;;9.11;67.15
3294;BME280;1659;51.470;6.770;2024-03-02T02:31:59;99850.69;;;9.13;67.18
3294;BME280;1659;51.470;6.770;2024-03-02T02:34:25;99846.25;;;9.15;67.05
3294;BME280;1659;51.470;6.770;2024-03-02T02:36:52;99841.78;;;9.17;66.81
3294;BME280;1659;51.470;6.770;2024-03-02T02:39:21;99854.03;;;9.20;66.69
3294;BME280;1659;51.470;6.770;2024-03-02T02:41:48;99846.09;;;9.21;66.72
3294;BME280;1659;51.470;6.770;2024-03-02T02:44:15;99841.63;;;9.23;66.79
3294;BME280;1659;51.470;6.770;2024-03-02T02:46:41;99852.97;;;9.27;66.21
3294;BME280;1659;51.470;6.770;2024-03-02T02:49:08;99839.75;;;9.29;66.67
3294;BME280;1659;51.470;6.770;2024-03-02T02:51:34;99834.44;;;9.30;66.48
3294;BME280;1659;51.470;6.770;2024-03-02T02:54:01;99840.56;;;9.31;66.62
3294;BME280;1659;51.470;6.770;2024-03-02T02:56:29;99835.28;;;9.31;66.50
3294;BME280;1659;51.470;6.770;2024-03-02T02:58:56;99837.97;;;9.29;66.47
3294;BME280;1659;51.470;6.770;2024-03-02T03:01:22;99843.38;;;9.24;66.37
3294;BME280;1659;51.470;6.770;2024-03-02T03:03:49;99839.00;;;9.23;66.61
3294;BME280;1659;51.470;6.770;2024-03-02T03:06:15;99837.25;;;9.22;66.63
3294;BME280;1659;51.470;6.770;2024-03-02T03:08:42;99844.28;;;9.23;66.43
3294;BME280;1659;51.470;6.770;2024-03-02T03:11:09;99840.78;;;9.23;66.50
3294;BME280;1659;51.470;6.770;2024-03-02T03:13:37;99836.38;;;9.23;66.72
3294;BME280;1659;51.470;6.770;2024-03-02T03:16:03;99847.75;;;9.24;66.51
3294;BME280;1659;51.470;6.770;2024-03-02T03:18:30;99842.50;;;9.24;66.89
3294;BME280;1659;51.470;6.770;2024-03-02T03:20:57;99840.78;;;9.23;66.43
3294;BME280;1659;51.470;6.770;2024-03-02T03:23:24;99842.50;;;9.24;66.33
3294;BME280;1659;51.470;6.770;2024-03-02T03:25:51;99839.03;;;9.22;66.71
3294;BME280;1659;51.470;6.770;2024-03-02T03:28:17;99836.44;;;9.20;66.48
3294;BME280;1659;51.470;6.770;2024-03-02T03:30:45;99851.44;;;9.18;66.55
3294;BME280;1659;51.470;6.770;2024-03-02T03:33:12;99867.28;;;9.17;66.80
3294;BME280;1659;51.470;6.770;2024-03-02T03:35:38;99875.19;;;9.17;66.77
3294;BME280;1659;51.470;6.770;2024-03-02T03:38:05;99876.13;;;9.16;66.73
3294;BME280;1659;51.470;6.770;2024-03-02T03:40:31;99867.44;;;9.12;66.92
3294;BME280;1659;51.470;6.770;2024-03-02T03:42:58;99865.78;;;9.08;66.93
3294;BME280;1659;51.470;6.770;2024-03-02T03:45:25;99869.41;;;9.04;67.02
3294;BME280;1659;51.470;6.770;2024-03-02T03:47:53;99873.88;;;9.02;67.50
3294;BME280;1659;51.470;6.770;2024-03-02T03:50:19;99878.28;;;9.00;67.78
3294;BME280;1659;51.470;6.770;2024-03-02T03:52:46;99876.59;;;8.97;67.59
3294;BME280;1659;51.470;6.770;2024-03-02T03:55:13;99875.75;;;8.97;67.43
3294;BME280;1659;51.470;6.770;2024-03-02T03:57:39;99867.09;;;8.92;67.78
3294;BME280;1659;51.470;6.770;2024-03-02T04:00:07;99865.44;;;8.87;67.59
3294;BME280;1659;51.470;6.770;2024-03-02T04:02:35;99866.47;;;8.82;67.95
3294;BME280;1659;51.470;6.770;2024-03-02T04:05:03;99870.94;;;8.78;68.24
3294;BME280;1659;51.470;6.770;2024-03-02T04:07:34;99867.59;;;8.72;68.42
3294;BME280;1659;51.470;6.770;2024-03-02T04:10:06;99872.13;;;8.66;68.27
3294;BME280;1659;51.470;6.770;2024-03-02T04:12:34;99868.81;;;8.60;68.69
3294;BME280;1659;51.470;6.770;2024-03-02T04:15:00;99875.16;;;8.51;69.11
3294;BME280;1659;51.470;6.770;2024-03-02T04:17:29;99873.56;;;8.44;68.87
3294;BME280;1659;51.470;6.770;2024-03-02T04:19:56;99877.25;;;8.35;68.92
3294;BME280;1659;51.470;6.770;2024-03-02T04:22:23;99873.88;;;8.30;69.07
3294;BME280;1659;51.470;6.770;2024-03-02T04:24:50;99874.84;;;8.26;69.75
3294;BME280;1659;51.470;6.770;2024-03-02T04:27:16;99880.25;;;8.20;69.91
3294;BME280;1659;51.470;6.770;2024-03-02T04:29:43;99875.94;;;8.16;69.89
3294;BME280;1659;51.470;6.770;2024-03-02T04:32:09;99870.81;;;8.11;70.28
3294;BME280;1659;51.470;6.770;2024-03-02T04:34:36;99875.28;;;8.07;70.37
3294;BME280;1659;51.470;6.770;2024-03-02T04:37:03;99867.47;;;8.03;69.80
3294;BME280;1659;51.470;6.770;2024-03-02T04:39:31;99863.13;;;8.00;69.90
3294;BME280;1659;51.470;6.770;2024-03-02T04:41:56;99873.72;;;7.99;70.65
3294;BME280;1659;51.470;6.770;2024-03-02T04:44:23;99880.72;;;7.98;70.55
3294;BME280;1659;51.470;6.770;2024-03-02T04:46:50;99886.81;;;8.00;70.54
3294;BME280;1659;51.470;6.770;2024-03-02T04:49:16;99877.22;;;7.99;70.42
3294;BME280;1659;51.470;6.770;2024-03-02T04:51:43;99881.63;;;7.99;70.31
3294;BME280;1659;51.470;6.770;2024-03-02T04:54:09;99886.81;;;8.00;70.64
3294;BME280;1659;51.470;6.770;2024-03-02T04:56:37;99886.78;;;8.02;70.36
3294;BME280;1659;51.470;6.770;2024-03-02T04:59:10;99878.94;;;8.00;70.51
3294;BME280;1659;51.470;6.770;2024-03-02T05:01:36;99875.50;;;7.97;70.54
3294;BME280;1659;51.470;6.770;2024-03-02T05:04:03;99884.41;;;7.91;70.64
3294;BME280;1659;51.470;6.770;2024-03-02T05:06:29;99883.75;;;7.81;71.25
3294;BME280;1659;51.470;6.770;2024-03-02T05:08:56;99883.94;;;7.72;70.82
3294;BME280;1659;51.470;6.770;2024-03-02T05:11:23;99888.44;;;7.65;70.80
3294;BME280;1659;51.470;6.770;2024-03-02T05:14:16;99899.09;;;7.59;71.21
3294;BME280;1659;51.470;6.770;2024-03-02T05:16:43;99894.88;;;7.52;71.56
3294;BME280;1659;51.470;6.770;2024-03-02T05:19:09;99904.59;;;7.48;71.30
3294;BME280;1659;51.470;6.770;2024-03-02T05:21:36;99898.53;;;7.45;71.42
3294;BME280;1659;51.470;6.770;2024-03-02T05:24:03;99901.22;;;7.40;71.75
3294;BME280;1659;51.470;6.770;2024-03-02T05:26:29;99899.56;;;7.36;72.00
3294;BME280;1659;51.470;6.770;2024-03-02T05:28:56;99893.53;;;7.31;71.49
3294;BME280;1659;51.470;6.770;2024-03-02T05:31:24;99901.53;;;7.25;71.50
3294;BME280;1659;51.470;6.770;2024-03-02T05:33:50;99912.97;;;7.22;72.26
3294;BME280;1659;51.470;6.770;2024-03-02T05:36:17;99913.81;;;7.24;71.97
3294;BME280;1659;51.470;6.770;2024-03-02T05:38:45;99912.06;;;7.23;72.04
3294;BME280;1659;51.470;6.770;2024-03-02T05:41:12;99915.59;;;7.22;71.67
3294;BME280;1659;51.470;6.770;2024-03-02T05:43:39;99914.78;;;7.20;71.96
3294;BME280;1659;51.470;6.770;2024-03-02T05:46:05;99915.66;;;7.19;71.99
3294;BME280;1659;51.470;6.770;2024-03-02T05:48:33;99906.91;;;7.18;72.29
3294;BME280;1659;51.470;6.770;2024-03-02T05:51:00;99906.94;;;7.17;72.49
3294;BME280;1659;51.470;6.770;2024-03-02T05:53:26;99907.81;;;7.16;72.19
3294;BME280;1659;51.470;6.770;2024-03-02T05:55:53;99904.28;;;7.18;72.81
3294;BME280;1659;51.470;6.770;2024-03-02T05:58:21;99914.78;;;7.18;72.07
3294;BME280;1659;51.470;6.770;2024-03-02T06:00:57;99917.41;;;7.20;73.02
3294;BME280;1659;51.470;6.770;2024-03-02T06:03:24;99925.19;;;7.25;72.33
3294;BME280;1659;51.470;6.770;2024-03-02T06:05:52;99925.09;;;7.29;72.61
3294;BME280;1659;51.470;6.770;2024-03-02T06:08:18;99923.31;;;7.31;72.73
3294;BME280;1659;51.470;6.770;2024-03-02T06:10:45;99931.19;;;7.31;72.63
3294;BME280;1659;51.470;6.770;2024-03-02T06:13:12;99928.56;;;7.31;72.70
3294;BME280;1659;51.470;6.770;2024-03-02T06:15:38;99930.34;;;7.31;72.41
3294;BME280;1659;51.470;6.770;2024-03-02T06:18:05;99925.97;;;7.30;72.32
3294;BME280;1659;51.470;6.770;2024-03-02T06:20:33;99934.69;;;7.30;72.67
3294;BME280;1659;51.470;6.770;2024-03-02T06:23:01;99926.78;;;7.32;72.83
3294;BME280;1659;51.470;6.770;2024-03-02T06:25:27;99934.66;;;7.32;72.95
3294;BME280;1659;51.470;6.770;2024-03-02T06:27:54;99929.38;;;7.33;72.87
3294;BME280;1659;51.470;6.770;2024-03-02T06:30:20;99935.59;;;7.31;73.44
3294;BME280;1659;51.470;6.770;2024-03-02T06:32:47;99927.72;;;7.29;73.58
3294;BME280;1659;51.470;6.770;2024-03-02T06:35:13;99936.50;;;7.28;73.45
3294;BME280;1659;51.470;6.770;2024-03-02T06:37:40;99945.25;;;7.29;73.00
3294;BME280;1659;51.470;6.770;2024-03-02T06:40:09;99936.47;;;7.30;73.00
3294;BME280;1659;51.470;6.770;2024-03-02T06:42:35;99944.34;;;7.30;72.88
3294;BME280;1659;51.470;6.770;2024-03-02T06:45:03;99957.47;;;7.31;72.68
3294;BME280;1659;51.470;6.770;2024-03-02T06:47:29;99960.06;;;7.33;73.48
3294;BME280;1659;51.470;6.770;2024-03-02T06:49:56;99959.13;;;7.35;72.92
3294;BME280;1659;51.470;6.770;2024-03-02T06:52:23;99960.88;;;7.36;73.40
3294;BME280;1659;51.470;6.770;2024-03-02T06:54:50;99968.75;;;7.38;73.26
3294;BME280;1659;51.470;6.770;2024-03-02T06:57:18;99962.50;;;7.44;73.59
3294;BME280;1659;51.470;6.770;2024-03-02T06:59:47;99957.06;;;7.53;72.64
3294;BME280;1659;51.470;6.770;2024-03-02T07:02:15;99957.69;;;7.66;73.32
3294;BME280;1659;51.470;6.770;2024-03-02T07:04:42;99967.03;;;7.81;72.67
3294;BME280;1659;51.470;6.770;2024-03-02T07:07:08;99968.53;;;7.92;72.75
3294;BME280;1659;51.470;6.770;2024-03-02T07:09:35;99968.31;;;8.03;72.98
3294;BME280;1659;51.470;6.770;2024-03-02T07:12:02;99969.78;;;8.17;72.12
3294;BME280;1659;51.470;6.770;2024-03-02T07:14:30;99971.28;;;8.30;72.21
3294;BME280;1659;51.470;6.770;2024-03-02T07:17:10;99977.22;;;8.38;72.01
3294;BME280;1659;51.470;6.770;2024-03-02T07:19:38;99972.72;;;8.45;71.87
3294;BME280;1659;51.470;6.770;2024-03-02T07:22:06;99970.81;;;8.52;71.72
3294;BME280;1659;51.470;6.770;2024-03-02T07:24:39;99980.22;;;8.62;71.76
3294;BME280;1659;51.470;6.770;2024-03-02T07:27:06;99987.13;;;8.67;71.38
3294;BME280;1659;51.470;6.770;2024-03-02T07:29:33;99986.00;;;8.78;71.32
3294;BME280;1659;51.470;6.770;2024-03-02T07:32:00;100001.56;;;8.87;71.22
3294;BME280;1659;51.470;6.770;2024-03-02T07:34:27;99995.16;;;8.99;70.34
3294;BME280;1659;51.470;6.770;2024-03-02T07:36:53;99995.88;;;9.05;70.38
3294;BME280;1659;51.470;6.770;2024-03-02T07:39:20;99992.28;;;9.08;69.98
3294;BME280;1659;51.470;6.770;2024-03-02T07:41:46;99987.63;;;9.19;69.74
3294;BME280;1659;51.470;6.770;2024-03-02T07:44:13;99991.47;;;9.40;68.96
3294;BME280;1659;51.470;6.770;2024-03-02T07:46:41;99992.59;;;9.64;68.43
3294;BME280;1659;51.470;6.770;2024-03-02T07:49:09;99989.50;;;9.80;68.09
3294;BME280;1659;51.470;6.770;2024-03-02T07:51:35;99986.34;;;9.98;67.61
3294;BME280;1659;51.470;6.770;2024-03-02T07:54:02;100006.31;;;10.07;67.42
3294;BME280;1659;51.470;6.770;2024-03-02T07:56:29;99991.94;;;10.17;67.46
3294;BME280;1659;51.470;6.770;2024-03-02T07:58:56;100002.06;;;10.34;67.13
3294;BME280;1659;51.470;6.770;2024-03-02T08:01:26;100005.56;;;10.35;66.88
3294;BME280;1659;51.470;6.770;2024-03-02T08:03:54;100009.09;;;10.34;66.74
3294;BME280;1659;51.470;6.770;2024-03-02T08:06:23;100026.13;;;10.22;66.41
3294;BME280;1659;51.470;6.770;2024-03-02T08:08:52;100017.66;;;10.11;66.74
3294;BME280;1659;51.470;6.770;2024-03-02T08:11:19;100028.19;;;10.12;66.99
3294;BME280;1659;51.470;6.770;2024-03-02T08:13:46;100028.50;;;10.33;66.84
3294;BME280;1659;51.470;6.770;2024-03-02T08:16:12;100034.53;;;10.38;66.64
3294;BME280;1659;51.470;6.770;2024-03-02T08:18:39;100040.28;;;10.51;66.47
3294;BME280;1659;51.470;6.770;2024-03-02T08:21:07;100038.94;;;10.66;66.02
3294;BME280;1659;51.470;6.770;2024-03-02T08:23:34;100031.75;;;10.71;65.28
3294;BME280;1659;51.470;6.770;2024-03-02T08:26:01;100029.97;;;10.71;65.41
3294;BME280;1659;51.470;6.770;2024-03-02T08:28:28;100024.69;;;10.71;65.20
3294;BME280;1659;51.470;6.770;2024-03-02T08:30:55;100021.03;;;10.75;65.31
3294;BME280;1659;51.470;6.770;2024-03-02T08:33:22;100021.22;;;10.69;65.34
3294;BME280;1659;51.470;6.770;2024-03-02T08:35:48;100028.31;;;10.67;65.21
3294;BME280;1659;51.470;6.770;2024-03-02T08:38:16;100026.22;;;10.79;65.04
3294;BME280;1659;51.470;6.770;2024-03-02T08:40:43;100020.81;;;11.10;64.67
3294;BME280;1659;51.470;6.770;2024-03-02T08:43:10;100013.94;;;11.31;64.15
3294;BME280;1659;51.470;6.770;2024-03-02T08:45:37;100018.16;;;11.37;63.72
3294;BME280;1659;51.470;6.770;2024-03-02T08:48:06;100005.06;;;11.59;63.33
3294;BME280;1659;51.470;6.770;2024-03-02T08:50:33;100001.09;;;11.70;62.86
3294;BME280;1659;51.470;6.770;2024-03-02T08:53:00;100012.03;;;11.86;61.69
3294;BME280;1659;51.470;6.770;2024-03-02T08:55:28;100007.91;;;12.03;61.63
3294;BME280;1659;51.470;6.770;2024-03-02T08:57:55;100013.88;;;12.32;61.07
3294;BME280;1659;51.470;6.770;2024-03-02T09:00:22;100022.56;;;12.59;61.05
3294;BME280;1659;51.470;6.770;2024-03-02T09:02:49;100021.06;;;12.97;60.16
3294;BME280;1659;51.470;6.770;2024-03-02T09:05:15;100026.28;;;13.21;60.07
3294;BME280;1659;51.470;6.770;2024-03-02T09:07:42;100016.78;;;13.58;59.95
3294;BME280;1659;51.470;6.770;2024-03-02T09:10:09;100023.22;;;13.73;58.93
3294;BME280;1659;51.470;6.770;2024-03-02T09:12:37;100017.63;;;14.00;58.72
3294;BME280;1659;51.470;6.770;2024-03-02T09:15:05;100023.34;;;14.30;58.31
3294;BME280;1659;51.470;6.770;2024-03-02T09:17:32;100017.38;;;14.44;57.56
3294;BME280;1659;51.470;6.770;2024-03-02T09:19:59;100009.97;;;14.50;57.61
3294;BME280;1659;51.470;6.770;2024-03-02T09:22:25;100021.78;;;14.64;56.89
3294;BME280;1659;51.470;6.770;2024-03-02T09:24:52;100023.19;;;14.71;56.38
3294;BME280;1659;51.470;6.770;2024-03-02T09:27:19;100020.84;;;14.84;56.22
3294;BME280;1659;51.470;6.770;2024-03-02T09:29:47;100019.13;;;15.00;55.63
3294;BME280;1659;51.470;6.770;2024-03-02T09:32:13;100033.25;;;14.83;54.76
3294;BME280;1659;51.470;6.770;2024-03-02T09:34:41;100032.00;;;14.73;54.86
3294;BME280;1659;51.470;6.770;2024-03-02T09:37:08;100047.50;;;14.82;54.66
3294;BME280;1659;51.470;6.770;2024-03-02T09:39:35;100032.41;;;14.83;54.51
3294;BME280;1659;51.470;6.770;2024-03-02T09:42:03;100028.84;;;15.01;53.93
3294;BME280;1659;51.470;6.770;2024-03-02T09:44:30;100026.63;;;14.92;53.20
3294;BME280;1659;51.470;6.770;2024-03-02T09:46:59;100021.81;;;14.81;52.92
3294;BME280;1659;51.470;6.770;2024-03-02T09:49:25;100017.88;;;15.07;52.91
3294;BME280;1659;51.470;6.770;2024-03-02T09:51:52;100011.75;;;15.24;52.74
3294;BME280;1659;51.470;6.770;2024-03-02T09:54:19;100005.38;;;15.27;52.08
3294;BME280;1659;51.470;6.770;2024-03-02T09:56:46;100014.19;;;15.29;51.92
3294;BME280;1659;51.470;6.770;2024-03-02T09:59:13;100018.44;;;14.97;51.94
3294;BME280;1659;51.470;6.770;2024-03-02T10:01:55;100012.03;;;15.18;51.78
3294;BME280;1659;51.470;6.770;2024-03-02T10:04:24;100008.44;;;15.37;51.54
3294;BME280;1659;51.470;6.770;2024-03-02T10:06:51;100009.72;;;15.29;51.60
3294;BME280;1659;51.470;6.770;2024-03-02T10:09:36;100005.84;;;15.18;52.07
3294;BME280;1659;51.470;6.770;2024-03-02T10:12:04;100006.19;;;15.46;52.05
3294;BME280;1659;51.470;6.770;2024-03-02T10:14:31;100001.19;;;15.75;51.63
3294;BME280;1659;51.470;6.770;2024-03-02T10:17:02;100025.25;;;16.07;51.07
3294;BME280;1659;51.470;6.770;2024-03-02T10:19:31;100010.56;;;15.65;51.06
3294;BME280;1659;51.470;6.770;2024-03-02T10:22:00;100006.81;;;15.34;51.15
3294;BME280;1659;51.470;6.770;2024-03-02T10:24:35;100000.31;;;15.40;51.24
3294;BME280;1659;51.470;6.770;2024-03-02T10:27:06;100007.41;;;15.57;50.81
3294;BME280;1659;51.470;6.770;2024-03-02T10:29:37;100010.63;;;15.81;50.58
3294;BME280;1659;51.470;6.770;2024-03-02T10:32:04;100011.59;;;16.13;50.29
3294;BME280;1659;51.470;6.770;2024-03-02T10:34:33;100012.38;;;16.15;49.60
3294;BME280;1659;51.470;6.770;2024-03-02T10:36:59;100008.63;;;16.35;49.14
3294;BME280;1659;51.470;6.770;2024-03-02T10:39:26;99997.88;;;16.53;49.01
3294;BME280;1659;51.470;6.770;2024-03-02T10:41:55;100002.13;;;16.89;48.71
3294;BME280;1659;51.470;6.770;2024-03-02T10:44:23;100001.59;;;16.66;48.19
3294;BME280;1659;51.470;6.770;2024-03-02T10:46:50;99998.16;;;16.64;48.35
3294;BME280;1659;51.470;6.770;2024-03-02T10:49:20;100001.66;;;16.80;48.22
3294;BME280;1659;51.470;6.770;2024-03-02T10:51:50;100013.94;;;16.85;47.38
3294;BME280;1659;51.470;6.770;2024-03-02T10:54:17;100000.91;;;16.47;47.59
3294;BME280;1659;51.470;6.770;2024-03-02T10:56:52;99984.00;;;16.30;47.44
3294;BME280;1659;51.470;6.770;2024-03-02T10:59:25;99975.06;;;16.31;47.46
3294;BME280;1659;51.470;6.770;2024-03-02T11:01:55;99982.63;;;16.23;47.37
3294;BME280;1659;51.470;6.770;2024-03-02T11:04:24;99981.25;;;16.48;47.34
3294;BME280;1659;51.470;6.770;2024-03-02T11:06:56;99987.72;;;16.59;46.94
3294;BME280;1659;51.470;6.770;2024-03-02T11:09:26;99976.44;;;16.38;46.79
3294;BME280;1659;51.470;6.770;2024-03-02T11:12:00;99972.94;;;16.22;47.00
3294;BME280;1659;51.470;6.770;2024-03-02T11:14:32;99972.16;;;16.20;46.98
3294;BME280;1659;51.470;6.770;2024-03-02T11:17:01;99980.25;;;16.34;46.96
3294;BME280;1659;51.470;6.770;2024-03-02T11:19:29;99960.91;;;16.47;46.71
3294;BME280;1659;51.470;6.770;2024-03-02T11:21:58;99963.47;;;16.64;46.71
3294;BME280;1659;51.470;6.770;2024-03-02T11:24:30;99956.88;;;17.02;46.36
3294;BME280;1659;51.470;6.770;2024-03-02T11:26:59;99951.31;;;17.21;46.14
3294;BME280;1659;51.470;6.770;2024-03-02T11:29:43;99952.94;;;17.53;45.93
3294;BME280;1659;51.470;6.770;2024-03-02T11:32:14;99964.28;;;17.57;45.79
3294;BME280;1659;51.470;6.770;2024-03-02T11:34:41;99967.13;;;17.54;45.38
3294;BME280;1659;51.470;6.770;2024-03-02T11:37:12;99967.09;;;17.25;45.44
3294;BME280;1659;51.470;6.770;2024-03-02T11:39:39;99957.44;;;17.23;45.32
3294;BME280;1659;51.470;6.770;2024-03-02T11:42:06;99967.00;;;17.27;45.07
3294;BME280;1659;51.470;6.770;2024-03-02T11:44:35;99966.53;;;17.34;44.66
3294;BME280;1659;51.470;6.770;2024-03-02T11:47:02;99968.66;;;17.13;44.22
3294;BME280;1659;51.470;6.770;2024-03-02T11:49:37;99950.91;;;16.50;44.89
3294;BME280;1659;51.470;6.770;2024-03-02T11:52:05;99957.78;;;16.70;45.45
3294;BME280;1659;51.470;6.770;2024-03-02T11:54:34;99972.31;;;16.80;45.11
3294;BME280;1659;51.470;6.770;2024-03-02T11:57:02;99964.84;;;16.71;45.27
3294;BME280;1659;51.470;6.770;2024-03-02T11:59:29;99959.44;;;16.57;45.05
3294;BME280;1659;51.470;6.770;2024-03-02T12:01:56;99951.25;;;16.60;45.37
3294;BME280;1659;51.470;6.770;2024-03-02T12:04:24;99948.13;;;16.99;45.30
3294;BME280;1659;51.470;6.770;2024-03-02T12:06:54;99943.91;;;17.26;44.98
3294;BME280;1659;51.470;6.770;2024-03-02T12:09:21;99948.38;;;17.84;44.53
3294;BME280;1659;51.470;6.770;2024-03-02T12:12:01;99940.97;;;18.04;43.80
3294;BME280;1659;51.470;6.770;2024-03-02T12:14:28;99929.41;;;18.03;43.45
3294;BME280;1659;51.470;6.770;2024-03-02T12:16:55;99921.25;;;18.05;43.26
3294;BME280;1659;51.470;6.770;2024-03-02T12:19:23;99923.09;;;18.04;43.03
3294;BME280;1659;51.470;6.770;2024-03-02T12:21:50;99928.63;;;18.16;43.00
3294;BME280;1659;51.470;6.770;2024-03-02T12:24:17;99927.94;;;18.26;42.66
3294;BME280;1659;51.470;6.770;2024-03-02T12:26:44;99922.22;;;18.18;42.67
3294;BME280;1659;51.470;6.770;2024-03-02T12:29:13;99921.75;;;18.11;42.78
3294;BME280;1659;51.470;6.770;2024-03-02T12:31:40;99915.25;;;18.16;43.03
3294;BME280;1659;51.470;6.770;2024-03-02T12:34:07;99918.34;;;17.95;42.99
3294;BME280;1659;51.470;6.770;2024-03-02T12:36:37;99909.25;;;17.69;43.02
3294;BME280;1659;51.470;6.770;2024-03-02T12:39:03;99911.63;;;17.45;43.40
3294;BME280;1659;51.470;6.770;2024-03-02T12:41:30;99909.84;;;17.15;43.33
3294;BME280;1659;51.470;6.770;2024-03-02T12:43:56;99904.31;;;16.88;43.68
3294;BME280;1659;51.470;6.770;2024-03-02T12:46:24;99903.13;;;16.77;43.92
3294;BME280;1659;51.470;6.770;2024-03-02T12:48:51;99895.59;;;16.54;44.14
3294;BME280;1659;51.470;6.770;2024-03-02T12:51:18;99885.72;;;16.40;44.42
3294;BME280;1659;51.470;6.770;2024-03-02T12:53:44;99889.84;;;16.30;44.60
3294;BME280;1659;51.470;6.770;2024-03-02T12:56:11;99885.53;;;15.95;44.97
3294;BME280;1659;51.470;6.770;2024-03-02T12:58:39;99886.41;;;15.80;45.19
3294;BME280;1659;51.470;6.770;2024-03-02T13:01:06;99889.78;;;15.66;45.34
3294;BME280;1659;51.470;6.770;2024-03-02T13:03:36;99883.31;;;15.54;45.40
3294;BME280;1659;51.470;6.770;2024-03-02T13:06:04;99885.59;;;15.44;45.59
3294;BME280;1659;51.470;6.770;2024-03-02T13:08:31;99883.25;;;15.38;45.93
3294;BME280;1659;51.470;6.770;2024-03-02T13:10:58;99896.81;;;15.16;46.17
3294;BME280;1659;51.470;6.770;2024-03-02T13:13:25;99887.28;;;14.95;46.34
3294;BME280;1659;51.470;6.770;2024-03-02T13:15:55;99876.94;;;14.88;46.72
3294;BME280;1659;51.470;6.770;2024-03-02T13:18:21;99879.16;;;14.80;47.17
3294;BME280;1659;51.470;6.770;2024-03-02T13:20:49;99880.63;;;14.68;47.46
3294;BME280;1659;51.470;6.770;2024-03-02T13:23:16;99872.28;;;14.57;47.72
3294;BME280;1659;51.470;6.770;2024-03-02T13:25:42;99875.19;;;14.52;47.98
3294;BME280;1659;51.470;6.770;2024-03-02T13:28:10;99864.69;;;14.49;48.03